Astoria, Illinois
Current Conditions -  °F | °C
As of 2:15 PM on Friday 28 Nov 2014 (Local Time) from KMQB Reporting Station
Clear Clear  
Wind Chill: 28°   Ceiling: Unl
Heat Index: 37°   Visibility: 10mi
Dew Point: 32°   Wind: 13mph
Humidity: 83%   Direction: 160°SSE
Pressure: 29.95"   Gusts: NA
Location:  40.23°N, 90.36°W
Report Text: KMQB 282015Z AUTO 16011KT 10SM CLR 03/00 A2995 RMK AO2 T00251002
Loading
Personal Weather Stations






























Interactive Weather Map New forecast layout! Learn more

10-Day Weather Forecast

Advertisements
Track Severe Weather on mobile